createdAt,value
2022-10-18T00:02:01.395Z,13.70
2022-10-18T00:04:29.656Z,13.40
2022-10-18T00:06:58.052Z,13.14
2022-10-18T00:09:27.457Z,13.17
2022-10-18T00:11:56.099Z,13.09
2022-10-18T00:14:25.723Z,13.21
2022-10-18T00:16:54.035Z,13.40
2022-10-18T00:19:25.882Z,13.25
2022-10-18T00:21:56.762Z,13.20
2022-10-18T00:24:25.048Z,13.33
2022-10-18T00:26:53.669Z,13.39
2022-10-18T00:29:25.619Z,13.33
2022-10-18T00:31:53.876Z,13.37
2022-10-18T00:34:22.084Z,13.44
2022-10-18T00:36:50.408Z,13.54
2022-10-18T00:39:20.159Z,13.63
2022-10-18T00:41:51.183Z,13.66
2022-10-18T00:45:13.501Z,13.82
2022-10-18T00:47:42.485Z,13.77
2022-10-18T00:50:14.223Z,13.98
2022-10-18T00:52:46.678Z,13.94
2022-10-18T00:55:15.146Z,14.12
2022-10-18T00:57:46.462Z,14.16
2022-10-18T01:00:16.816Z,14.19
2022-10-18T01:02:46.617Z,13.98
2022-10-18T01:05:16.573Z,13.84
2022-10-18T01:07:59.871Z,13.93
2022-10-18T01:10:35.997Z,13.86
2022-10-18T01:13:23.389Z,13.73
2022-10-18T01:16:01.288Z,13.73
2022-10-18T01:18:38.561Z,13.74
2022-10-18T01:21:17.418Z,13.69
2022-10-18T01:24:30.356Z,13.67
2022-10-18T01:27:29.877Z,13.83
2022-10-18T01:30:36.318Z,13.80
2022-10-18T01:33:13.166Z,14.05
2022-10-18T01:35:46.199Z,13.73
2022-10-18T01:38:18.143Z,13.89
2022-10-18T01:40:50.490Z,13.88
2022-10-18T01:43:20.876Z,13.98
2022-10-18T01:45:52.949Z,13.94
2022-10-18T01:48:23.423Z,14.02
2022-10-18T01:50:53.627Z,14.15
2022-10-18T01:53:28.056Z,14.42
2022-10-18T01:56:08.536Z,14.47
2022-10-18T01:58:43.007Z,14.22
2022-10-18T02:01:19.320Z,14.18
2022-10-18T02:03:53.485Z,14.09
2022-10-18T02:06:29.121Z,14.08
2022-10-18T02:09:04.761Z,14.13
2022-10-18T02:11:34.857Z,14.05
2022-10-18T02:14:09.425Z,14.17
2022-10-18T02:16:42.353Z,14.14
2022-10-18T02:19:16.755Z,14.14
2022-10-18T02:21:46.618Z,14.25
2022-10-18T02:24:16.215Z,14.18
2022-10-18T02:26:44.739Z,14.24
2022-10-18T02:29:13.451Z,14.12
2022-10-18T02:31:45.134Z,14.18
2022-10-18T02:34:21.309Z,14.17
2022-10-18T02:36:53.478Z,14.25
2022-10-18T02:39:26.013Z,14.51
2022-10-18T02:41:55.420Z,14.41
2022-10-18T02:44:24.154Z,14.54
2022-10-18T02:46:52.437Z,14.36
2022-10-18T02:49:22.199Z,14.37
2022-10-18T02:51:50.772Z,14.42
2022-10-18T02:54:19.011Z,14.08
2022-10-18T02:56:47.253Z,14.22
2022-10-18T02:59:15.567Z,14.31
2022-10-18T03:01:43.953Z,14.27
2022-10-18T03:04:12.248Z,14.30
2022-10-18T03:06:41.801Z,14.30
2022-10-18T03:09:10.758Z,14.31
2022-10-18T03:11:38.971Z,14.23
2022-10-18T03:14:07.226Z,14.20
2022-10-18T03:16:35.466Z,14.16
2022-10-18T03:19:04.290Z,14.08
2022-10-18T03:21:32.583Z,14.04
2022-10-18T03:24:03.096Z,14.12
2022-10-18T03:26:31.674Z,14.25
2022-10-18T03:29:00.077Z,14.46
2022-10-18T03:31:28.396Z,14.59
2022-10-18T03:33:56.756Z,14.27
2022-10-18T03:36:25.087Z,13.95
2022-10-18T03:38:53.327Z,14.08
2022-10-18T03:41:23.174Z,13.93
2022-10-18T03:43:51.411Z,14.25
2022-10-18T03:46:19.651Z,13.82
2022-10-18T03:48:50.025Z,13.73
2022-10-18T03:51:18.351Z,13.80
2022-10-18T03:53:46.703Z,13.37
2022-10-18T03:56:14.967Z,13.23
2022-10-18T03:58:44.563Z,13.27
2022-10-18T04:01:13.175Z,13.28
2022-10-18T04:03:41.455Z,13.36
2022-10-18T04:06:09.992Z,13.38
2022-10-18T04:08:38.243Z,13.40
2022-10-18T04:11:08.572Z,13.66
2022-10-18T04:13:36.974Z,13.37
2022-10-18T04:16:06.827Z,13.74
2022-10-18T04:18:37.462Z,13.48
2022-10-18T04:21:08.269Z,13.42
2022-10-18T04:23:38.787Z,13.45
2022-10-18T04:26:09.893Z,13.50
2022-10-18T04:28:40.113Z,13.52
2022-10-18T04:31:13.080Z,13.67
2022-10-18T04:33:43.682Z,13.88
2022-10-18T04:36:11.912Z,13.80
2022-10-18T04:38:40.168Z,13.98
2022-10-18T04:41:08.399Z,14.15
2022-10-18T04:43:36.889Z,13.97
2022-10-18T04:46:07.667Z,14.19
2022-10-18T04:48:37.305Z,13.93
2022-10-18T04:51:07.692Z,14.31
2022-10-18T04:53:35.955Z,14.10
2022-10-18T04:56:04.264Z,14.07
2022-10-18T04:58:32.490Z,14.25
2022-10-18T05:01:00.713Z,13.70
2022-10-18T05:03:28.924Z,14.13
2022-10-18T05:06:03.163Z,14.18
2022-10-18T05:08:33.765Z,14.23
2022-10-18T05:11:02.806Z,14.09
2022-10-18T05:13:31.441Z,14.00
2022-10-18T05:16:00.681Z,13.95
2022-10-18T05:18:29.159Z,14.28
2022-10-18T05:20:58.763Z,14.08
2022-10-18T05:23:27.016Z,14.20
2022-10-18T05:25:55.619Z,14.06
2022-10-18T05:28:42.151Z,14.25
2022-10-18T05:31:12.305Z,14.32
2022-10-18T05:33:40.820Z,14.15
2022-10-18T05:36:11.693Z,14.25
2022-10-18T05:38:42.623Z,14.05
2022-10-18T05:41:11.364Z,14.12
2022-10-18T05:43:40.071Z,13.89
2022-10-18T05:46:13.530Z,13.67
2022-10-18T05:48:43.865Z,13.58
2022-10-18T05:51:13.539Z,13.88
2022-10-18T05:53:41.824Z,13.98
2022-10-18T05:56:11.725Z,13.42
2022-10-18T05:58:41.049Z,13.58
2022-10-18T06:01:10.198Z,13.65
2022-10-18T06:03:38.563Z,13.54
2022-10-18T06:06:08.695Z,13.51
2022-10-18T06:08:39.507Z,13.62
2022-10-18T06:11:08.812Z,14.11
2022-10-18T06:13:41.561Z,14.29
2022-10-18T06:16:10.922Z,14.31
2022-10-18T06:18:39.515Z,13.88
2022-10-18T06:21:10.603Z,14.36
2022-10-18T06:23:40.344Z,13.95
2022-10-18T06:26:11.199Z,13.90
2022-10-18T06:28:39.808Z,14.07
2022-10-18T06:31:08.589Z,14.06
2022-10-18T06:33:37.044Z,14.22
2022-10-18T06:36:07.859Z,14.55
2022-10-18T06:38:36.341Z,14.51
2022-10-18T06:41:07.052Z,14.97
2022-10-18T06:43:35.668Z,14.25
2022-10-18T06:46:07.548Z,14.66
2022-10-18T06:48:36.693Z,14.60
2022-10-18T06:51:07.510Z,14.33
2022-10-18T06:53:44.051Z,14.36
2022-10-18T06:56:18.289Z,14.89
2022-10-18T06:58:46.556Z,14.58
2022-10-18T07:01:16.945Z,15.02
2022-10-18T07:03:45.809Z,14.75
2022-10-18T07:06:19.179Z,14.43
2022-10-18T07:08:48.200Z,14.47
2022-10-18T07:11:21.082Z,14.31
2022-10-18T07:13:49.376Z,14.27
2022-10-18T07:16:19.538Z,14.36
2022-10-18T07:18:50.248Z,14.66
2022-10-18T07:21:20.550Z,14.68
2022-10-18T07:23:49.514Z,14.63
2022-10-18T07:26:21.700Z,14.74
2022-10-18T07:28:54.025Z,14.93
2022-10-18T07:31:23.607Z,15.00
2022-10-18T07:33:54.346Z,14.98
2022-10-18T07:36:22.757Z,15.42
2022-10-18T07:38:53.738Z,15.95
2022-10-18T07:41:23.441Z,15.07
2022-10-18T07:43:53.028Z,15.07
2022-10-18T07:46:22.861Z,15.05
2022-10-18T07:48:52.137Z,15.40
2022-10-18T07:51:21.419Z,15.30
2022-10-18T07:53:49.701Z,15.40
2022-10-18T07:56:21.073Z,15.27
2022-10-18T07:58:53.379Z,15.62
2022-10-18T08:01:22.706Z,15.43
2022-10-18T08:03:54.070Z,15.64
2022-10-18T08:06:24.738Z,16.00
2022-10-18T08:08:53.321Z,15.77
2022-10-18T08:11:24.085Z,15.60
2022-10-18T08:13:56.213Z,15.73
2022-10-18T08:16:26.805Z,16.13
2022-10-18T08:18:56.037Z,16.00
2022-10-18T08:21:24.966Z,15.96
2022-10-18T08:23:55.136Z,15.65
2022-10-18T08:26:24.594Z,15.47
2022-10-18T08:29:17.739Z,15.52
2022-10-18T08:31:44.710Z,15.53
2022-10-18T08:34:17.289Z,15.66
2022-10-18T08:36:49.546Z,15.79
2022-10-18T08:39:17.884Z,15.91
2022-10-18T08:42:10.598Z,16.01
2022-10-18T08:44:46.047Z,15.70
2022-10-18T08:47:19.696Z,15.90
2022-10-18T08:49:51.482Z,16.26
2022-10-18T08:52:29.339Z,16.01
2022-10-18T08:55:12.797Z,15.98
2022-10-18T08:57:49.344Z,16.35
2022-10-18T09:00:21.541Z,16.50
2022-10-18T09:03:12.343Z,17.28
2022-10-18T09:05:50.063Z,17.15
2022-10-18T09:08:36.518Z,17.15
2022-10-18T09:11:19.396Z,16.89
2022-10-18T09:14:25.985Z,16.98
2022-10-18T09:17:07.459Z,17.40
2022-10-18T09:19:55.000Z,16.90
2022-10-18T09:22:34.021Z,17.77
2022-10-18T09:25:09.319Z,17.91
2022-10-18T09:27:49.596Z,18.55
2022-10-18T09:30:26.518Z,18.07
2022-10-18T09:33:05.989Z,18.52
2022-10-18T09:35:43.280Z,18.78
2022-10-18T09:38:17.061Z,19.24
2022-10-18T09:40:53.527Z,20.04
2022-10-18T09:43:25.758Z,20.18
2022-10-18T09:45:56.409Z,20.10
2022-10-18T09:48:30.109Z,20.09
2022-10-18T09:51:02.037Z,20.14
2022-10-18T09:53:41.538Z,20.44
2022-10-18T09:56:13.571Z,20.80
2022-10-18T09:58:44.486Z,20.40
2022-10-18T10:01:15.361Z,20.09
2022-10-18T10:03:45.222Z,20.57
2022-10-18T10:06:23.573Z,20.88
2022-10-18T10:08:58.561Z,21.39
2022-10-18T10:11:32.599Z,20.88
2022-10-18T10:14:09.831Z,20.61
2022-10-18T10:16:52.278Z,20.54
2022-10-18T10:19:25.436Z,20.81
2022-10-18T10:21:58.073Z,20.25
2022-10-18T10:24:34.135Z,20.30
2022-10-18T10:27:06.078Z,20.77
2022-10-18T10:29:56.514Z,20.81
2022-10-18T10:35:02.963Z,20.92
2022-10-18T10:37:35.487Z,20.47
2022-10-18T10:40:20.458Z,21.07
2022-10-18T10:43:36.564Z,21.14
2022-10-18T10:46:09.812Z,21.04
2022-10-18T10:48:49.478Z,20.80
2022-10-18T10:51:29.348Z,21.31
2022-10-18T10:54:03.792Z,21.00
2022-10-18T10:56:34.440Z,20.72
2022-10-18T10:59:11.123Z,20.99
2022-10-18T11:01:43.587Z,21.07
2022-10-18T11:04:27.509Z,21.13
2022-10-18T11:07:05.955Z,21.35
2022-10-18T11:09:51.096Z,21.05
2022-10-18T11:12:24.881Z,20.97
2022-10-18T11:15:00.576Z,20.96
2022-10-18T11:17:41.643Z,20.96
2022-10-18T11:20:13.274Z,21.04
2022-10-18T11:22:46.289Z,20.79
2022-10-18T11:25:17.922Z,20.73
2022-10-18T11:27:51.076Z,21.25
2022-10-18T11:30:37.087Z,20.89
2022-10-18T11:33:10.349Z,21.24
2022-10-18T11:35:43.195Z,21.44
2022-10-18T11:38:19.356Z,21.46
2022-10-18T11:40:55.806Z,22.03
2022-10-18T11:43:57.241Z,22.02
2022-10-18T11:46:29.646Z,21.93
2022-10-18T11:49:12.545Z,22.14
2022-10-18T11:52:09.272Z,22.00
2022-10-18T11:54:53.108Z,21.67
2022-10-18T11:57:41.158Z,22.34
2022-10-18T12:00:23.626Z,22.16
2022-10-18T12:03:13.152Z,22.04
2022-10-18T12:05:43.006Z,22.32
2022-10-18T12:08:14.484Z,22.42
2022-10-18T12:11:03.927Z,21.61
2022-10-18T12:13:35.976Z,21.52
2022-10-18T12:16:05.002Z,21.56
2022-10-18T12:18:33.377Z,21.91
2022-10-18T12:21:01.879Z,21.84
2022-10-18T12:23:38.999Z,22.01
2022-10-18T12:26:09.049Z,21.92
2022-10-18T12:28:45.967Z,22.04
2022-10-18T12:31:19.526Z,22.06
2022-10-18T12:33:49.232Z,21.84
2022-10-18T12:36:27.040Z,21.72
2022-10-18T12:38:58.336Z,22.24
2022-10-18T12:41:29.288Z,21.54
2022-10-18T12:44:01.924Z,21.40
2022-10-18T12:46:44.619Z,21.69
2022-10-18T12:49:13.876Z,21.61
2022-10-18T12:51:50.918Z,21.04
2022-10-18T12:54:21.273Z,21.10
2022-10-18T12:56:50.851Z,21.39
2022-10-18T12:59:52.288Z,21.07
2022-10-18T13:02:22.042Z,21.04
2022-10-18T13:04:50.150Z,20.93
2022-10-18T13:07:22.546Z,21.13
2022-10-18T13:10:09.361Z,21.31
2022-10-18T13:12:51.241Z,21.51
2022-10-18T13:15:34.349Z,22.30
2022-10-18T13:18:07.842Z,21.84
2022-10-18T13:20:39.481Z,21.71
2022-10-18T13:23:13.554Z,21.27
2022-10-18T13:25:50.590Z,21.73
2022-10-18T13:28:28.298Z,21.99
2022-10-18T13:30:58.670Z,21.02
2022-10-18T13:33:31.687Z,21.01
2022-10-18T13:36:02.826Z,21.13
2022-10-18T13:38:39.775Z,21.33
2022-10-18T13:41:10.772Z,21.07
2022-10-18T13:43:59.697Z,21.51
2022-10-18T13:46:42.624Z,21.25
2022-10-18T13:49:20.042Z,20.73
2022-10-18T13:51:53.930Z,20.88
2022-10-18T13:54:33.282Z,20.86
2022-10-18T13:57:14.674Z,20.46
2022-10-18T14:00:00.630Z,20.61
2022-10-18T14:02:59.611Z,20.46
2022-10-18T14:05:52.016Z,20.39
2022-10-18T14:08:21.668Z,20.29
2022-10-18T14:11:02.381Z,20.21
2022-10-18T14:13:35.305Z,20.00
2022-10-18T14:16:07.610Z,20.16
2022-10-18T14:18:38.888Z,20.41
2022-10-18T14:21:15.388Z,20.29
2022-10-18T14:23:46.053Z,20.05
2022-10-18T14:26:14.991Z,20.33
2022-10-18T14:29:00.270Z,20.51
2022-10-18T14:31:30.978Z,20.14
2022-10-18T14:34:03.672Z,20.32
2022-10-18T14:36:36.877Z,20.47
2022-10-18T14:39:06.030Z,20.49
2022-10-18T14:41:35.049Z,20.72
2022-10-18T14:44:18.461Z,20.21
2022-10-18T14:46:47.633Z,20.45
2022-10-18T14:49:20.104Z,20.49
2022-10-18T14:51:50.433Z,20.22
2022-10-18T14:54:19.586Z,19.86
2022-10-18T14:56:47.899Z,20.17
2022-10-18T14:59:18.834Z,20.23
2022-10-18T15:01:54.932Z,20.13
2022-10-18T15:04:27.835Z,20.16
2022-10-18T15:06:56.913Z,20.00
2022-10-18T15:09:25.234Z,20.33
2022-10-18T15:11:54.758Z,20.22
2022-10-18T15:14:22.905Z,20.24
2022-10-18T15:16:51.627Z,20.09
2022-10-18T15:19:29.899Z,20.09
2022-10-18T15:25:04.052Z,19.79
2022-10-18T15:27:33.215Z,19.87
2022-10-18T15:30:08.372Z,19.84
2022-10-18T15:32:37.747Z,19.79
2022-10-18T15:35:15.688Z,19.71
2022-10-18T15:37:44.983Z,19.53
2022-10-18T15:40:33.182Z,19.56
2022-10-18T15:43:02.264Z,19.68
2022-10-18T15:45:32.427Z,19.50
2022-10-18T15:48:01.676Z,19.42
2022-10-18T15:50:41.414Z,19.55
2022-10-18T15:53:26.459Z,19.58
2022-10-18T15:55:56.855Z,19.61
2022-10-18T15:58:25.894Z,19.42
2022-10-18T16:00:55.097Z,19.41
2022-10-18T16:03:24.018Z,19.48
2022-10-18T16:05:55.300Z,19.44
2022-10-18T16:08:24.214Z,19.45
2022-10-18T16:10:54.376Z,19.42
2022-10-18T16:13:22.451Z,19.34
2022-10-18T16:15:50.507Z,19.32
2022-10-18T16:18:20.268Z,19.32
2022-10-18T16:20:48.820Z,19.27
2022-10-18T16:23:19.876Z,19.19
2022-10-18T16:25:48.011Z,19.06
2022-10-18T16:28:16.697Z,18.87
2022-10-18T16:30:46.006Z,18.83
2022-10-18T16:33:17.838Z,18.92
2022-10-18T16:35:48.698Z,19.08
2022-10-18T16:38:22.950Z,19.06
2022-10-18T16:40:53.147Z,19.03
2022-10-18T16:43:21.339Z,18.96
2022-10-18T16:45:50.007Z,19.03
2022-10-18T16:48:18.806Z,18.72
2022-10-18T16:50:47.015Z,18.86
2022-10-18T16:53:15.190Z,18.96
2022-10-18T16:55:44.674Z,18.93
2022-10-18T16:58:16.709Z,18.73
2022-10-18T17:00:46.136Z,18.77
2022-10-18T17:03:14.583Z,18.63
2022-10-18T17:05:45.062Z,18.68
2022-10-18T17:08:18.912Z,18.58
2022-10-18T17:10:49.644Z,18.34
2022-10-18T17:13:18.051Z,18.35
2022-10-18T17:15:46.627Z,18.35
2022-10-18T17:18:16.242Z,18.24
2022-10-18T17:20:45.033Z,18.20
2022-10-18T17:23:13.123Z,18.18
2022-10-18T17:25:52.693Z,18.18
2022-10-18T17:28:33.086Z,18.03
2022-10-18T17:31:01.105Z,18.07
2022-10-18T17:33:29.130Z,17.96
2022-10-18T17:35:59.706Z,17.96
2022-10-18T17:38:27.699Z,17.85
2022-10-18T17:40:56.782Z,17.94
2022-10-18T17:43:25.044Z,17.76
2022-10-18T17:45:56.932Z,17.67
2022-10-18T17:48:25.534Z,17.61
2022-10-18T17:50:55.989Z,17.57
2022-10-18T17:53:28.402Z,17.32
2022-10-18T17:56:02.457Z,17.29
2022-10-18T17:58:31.484Z,17.11
2022-10-18T18:01:08.519Z,17.02
2022-10-18T18:03:36.572Z,16.88
2022-10-18T18:06:12.449Z,16.71
2022-10-18T18:08:40.411Z,16.60
2022-10-18T18:11:08.492Z,16.59
2022-10-18T18:13:36.557Z,16.61
2022-10-18T18:16:13.049Z,16.41
2022-10-18T18:18:41.553Z,16.14
2022-10-18T18:21:09.630Z,16.32
2022-10-18T18:23:37.642Z,16.39
2022-10-18T18:26:05.755Z,16.23
2022-10-18T18:28:34.465Z,16.18
2022-10-18T18:31:06.069Z,16.00
2022-10-18T18:33:35.472Z,16.06
2022-10-18T18:36:04.831Z,16.28
2022-10-18T18:38:33.381Z,16.23
2022-10-18T18:41:05.703Z,16.24
2022-10-18T18:43:33.757Z,16.22
2022-10-18T18:46:01.830Z,16.11
2022-10-18T18:48:30.145Z,16.13
2022-10-18T18:50:59.544Z,16.13
2022-10-18T18:53:29.395Z,16.17
2022-10-18T18:56:02.491Z,16.27
2022-10-18T18:58:30.483Z,16.28
2022-10-18T19:00:58.783Z,16.35
2022-10-18T19:03:26.818Z,16.26
2022-10-18T19:06:04.481Z,16.15
2022-10-18T19:08:32.561Z,16.29
2022-10-18T19:11:00.567Z,16.33
2022-10-18T19:13:30.911Z,15.95
2022-10-18T19:16:26.067Z,15.83
2022-10-18T19:18:55.459Z,16.06
2022-10-18T19:21:25.723Z,15.88
2022-10-18T19:23:56.855Z,15.61
2022-10-18T19:26:26.853Z,15.48
2022-10-18T19:28:55.325Z,15.40
2022-10-18T19:31:23.817Z,15.43
2022-10-18T19:33:59.219Z,15.43
2022-10-18T19:36:30.009Z,15.32
2022-10-18T19:38:58.187Z,15.47
2022-10-18T19:44:01.634Z,15.25
2022-10-18T19:46:29.854Z,15.17
2022-10-18T19:48:58.577Z,15.22
2022-10-18T19:51:28.306Z,15.19
2022-10-18T19:53:58.222Z,15.15
2022-10-18T19:56:27.099Z,15.13
2022-10-18T19:58:55.810Z,15.03
2022-10-18T20:01:24.449Z,14.86
2022-10-18T20:03:52.920Z,14.93
2022-10-18T20:06:21.677Z,14.96
2022-10-18T20:08:50.163Z,14.85
2022-10-18T20:11:20.522Z,15.01
2022-10-18T20:13:49.009Z,14.82
2022-10-18T20:16:26.917Z,14.47
2022-10-18T20:18:57.007Z,14.33
2022-10-18T20:21:25.400Z,14.62
2022-10-18T20:23:53.690Z,14.36
2022-10-18T20:26:25.255Z,14.38
2022-10-18T20:28:56.785Z,14.34
2022-10-18T20:31:26.101Z,14.40
2022-10-18T20:33:55.516Z,14.39
2022-10-18T20:36:23.550Z,14.34
2022-10-18T20:38:51.716Z,14.18
2022-10-18T20:41:21.372Z,14.21
2022-10-18T20:43:52.995Z,14.22
2022-10-18T20:46:23.531Z,14.32
2022-10-18T20:48:52.129Z,14.19
2022-10-18T20:51:20.548Z,14.13
2022-10-18T20:53:49.112Z,14.19
2022-10-18T20:56:17.874Z,14.10
2022-10-18T20:58:47.026Z,14.09
2022-10-18T21:01:18.158Z,14.07
2022-10-18T21:03:47.512Z,14.08
2022-10-18T21:06:16.774Z,14.03
2022-10-18T21:08:45.341Z,14.09
2022-10-18T21:11:13.912Z,14.00
2022-10-18T21:13:41.905Z,13.97
2022-10-18T21:16:10.119Z,13.90
2022-10-18T21:18:40.486Z,13.88
2022-10-18T21:21:09.683Z,13.81
2022-10-18T21:23:37.863Z,13.77
2022-10-18T21:26:06.457Z,13.72
2022-10-18T21:28:34.868Z,13.93
2022-10-18T21:31:09.934Z,14.06
2022-10-18T21:33:39.649Z,14.03
2022-10-18T21:36:08.201Z,13.81
2022-10-18T21:38:36.337Z,13.89
2022-10-18T21:41:08.401Z,13.83
2022-10-18T21:43:36.466Z,13.65
2022-10-18T21:46:04.460Z,13.66
2022-10-18T21:48:34.755Z,13.68
2022-10-18T21:51:04.936Z,13.61
2022-10-18T21:53:35.595Z,13.58
2022-10-18T21:56:07.449Z,13.58
2022-10-18T21:58:35.969Z,13.62
2022-10-18T22:02:37.715Z,13.41
2022-10-18T22:05:08.432Z,13.40
2022-10-18T22:07:39.361Z,13.49
2022-10-18T22:10:07.858Z,13.44
2022-10-18T22:12:35.862Z,13.32
2022-10-18T22:15:03.900Z,13.38
2022-10-18T22:17:34.401Z,13.37
2022-10-18T22:20:07.310Z,13.17
2022-10-18T22:22:35.334Z,13.09
2022-10-18T22:25:03.327Z,13.14
2022-10-18T22:27:32.111Z,13.18
2022-10-18T22:30:00.274Z,13.14
2022-10-18T22:32:28.230Z,13.15
2022-10-18T22:34:56.250Z,13.12
2022-10-18T22:37:25.540Z,13.10
2022-10-18T22:39:55.992Z,13.16
2022-10-18T22:42:24.037Z,13.12
2022-10-18T22:44:52.061Z,13.08
2022-10-18T22:47:20.014Z,13.07
2022-10-18T22:49:47.985Z,12.98
2022-10-18T22:52:15.943Z,12.82
2022-10-18T22:54:45.230Z,12.80
2022-10-18T22:57:13.192Z,12.81
2022-10-18T22:59:41.152Z,12.68
2022-10-18T23:02:09.610Z,12.69
2022-10-18T23:04:37.584Z,12.91
2022-10-18T23:07:07.873Z,12.98
2022-10-18T23:09:36.000Z,12.97
2022-10-18T23:12:07.385Z,13.46
2022-10-18T23:14:35.348Z,13.36
2022-10-18T23:17:03.306Z,13.19
2022-10-18T23:19:31.304Z,13.19
2022-10-18T23:21:59.244Z,13.07
2022-10-18T23:24:27.216Z,12.89
2022-10-18T23:26:55.183Z,12.90
2022-10-18T23:29:24.490Z,13.15
2022-10-18T23:31:54.798Z,13.01
2022-10-18T23:34:22.757Z,12.85
2022-10-18T23:36:50.699Z,12.68
2022-10-18T23:39:18.658Z,12.73
2022-10-18T23:41:46.619Z,12.73
2022-10-18T23:44:14.655Z,12.85
2022-10-18T23:46:43.947Z,12.82
2022-10-18T23:49:14.156Z,12.61
2022-10-18T23:51:42.169Z,12.41
2022-10-18T23:54:10.164Z,12.26
2022-10-18T23:56:40.441Z,12.15
2022-10-18T23:59:08.400Z,11.98
